sensor_id;sensor_type;location;lat;lon;timestamp;pressure;altitude;pressure_sealevel;temperature;humidity
52291;BME280;39663;45.432;28.050;2023-03-26T00:00:09;100194.84;;;13.51;47.80
52291;BME280;39663;45.432;28.050;2023-03-26T00:00:41;100193.34;;;13.52;47.27
52291;BME280;39663;45.432;28.050;2023-03-26T00:01:15;100191.51;;;13.53;47.17
52291;BME280;39663;45.432;28.050;2023-03-26T00:01:46;100191.49;;;13.50;47.16
52291;BME280;39663;45.432;28.050;2023-03-26T00:02:18;100190.79;;;13.31;47.11
52291;BME280;39663;45.432;28.050;2023-03-26T00:02:49;100191.93;;;13.41;47.17
52291;BME280;39663;45.432;28.050;2023-03-26T00:03:20;100196.86;;;13.21;47.44
52291;BME280;39663;45.432;28.050;2023-03-26T00:03:53;100196.34;;;13.51;47.57
52291;BME280;39663;45.432;28.050;2023-03-26T00:04:24;100193.61;;;12.93;48.01
52291;BME280;39663;45.432;28.050;2023-03-26T00:04:56;100192.39;;;13.18;47.86
52291;BME280;39663;45.432;28.050;2023-03-26T00:05:27;100195.72;;;12.88;48.34
52291;BME280;39663;45.432;28.050;2023-03-26T00:06:01;100198.93;;;12.69;48.81
52291;BME280;39663;45.432;28.050;2023-03-26T00:06:35;100200.35;;;12.84;48.73
52291;BME280;39663;45.432;28.050;2023-03-26T00:07:06;100204.76;;;12.76;48.43
52291;BME280;39663;45.432;28.050;2023-03-26T00:07:38;100206.57;;;12.87;48.40
52291;BME280;39663;45.432;28.050;2023-03-26T00:08:09;100206.41;;;12.93;48.72
52291;BME280;39663;45.432;28.050;2023-03-26T00:08:42;100205.79;;;13.04;48.52
52291;BME280;39663;45.432;28.050;2023-03-26T00:09:15;100205.32;;;13.35;48.38
52291;BME280;39663;45.432;28.050;2023-03-26T00:09:47;100204.21;;;13.44;47.92
52291;BME280;39663;45.432;28.050;2023-03-26T00:10:18;100202.34;;;13.28;47.65
52291;BME280;39663;45.432;28.050;2023-03-26T00:10:50;100201.39;;;13.30;47.64
52291;BME280;39663;45.432;28.050;2023-03-26T00:11:23;100199.43;;;13.33;47.59
52291;BME280;39663;45.432;28.050;2023-03-26T00:11:55;100199.43;;;13.48;47.50
52291;BME280;39663;45.432;28.050;2023-03-26T00:12:26;100198.11;;;13.46;47.88
52291;BME280;39663;45.432;28.050;2023-03-26T00:12:58;100197.17;;;13.55;47.56
52291;BME280;39663;45.432;28.050;2023-03-26T00:13:29;100196.70;;;13.45;47.39
52291;BME280;39663;45.432;28.050;2023-03-26T00:14:01;100196.68;;;13.74;47.08
52291;BME280;39663;45.432;28.050;2023-03-26T00:14:32;100197.00;;;13.79;47.13
52291;BME280;39663;45.432;28.050;2023-03-26T00:15:05;100198.01;;;13.51;46.72
52291;BME280;39663;45.432;28.050;2023-03-26T00:15:36;100197.40;;;14.05;46.42
52291;BME280;39663;45.432;28.050;2023-03-26T00:16:09;100197.36;;;13.93;46.47
52291;BME280;39663;45.432;28.050;2023-03-26T00:16:40;100198.57;;;13.73;46.77
52291;BME280;39663;45.432;28.050;2023-03-26T00:17:11;100198.09;;;13.99;46.85
52291;BME280;39663;45.432;28.050;2023-03-26T00:17:43;100199.65;;;13.81;46.78
52291;BME280;39663;45.432;28.050;2023-03-26T00:18:14;100199.21;;;13.90;46.51
52291;BME280;39663;45.432;28.050;2023-03-26T00:18:46;100198.91;;;14.01;46.09
52291;BME280;39663;45.432;28.050;2023-03-26T00:19:17;100196.38;;;14.03;45.97
52291;BME280;39663;45.432;28.050;2023-03-26T00:19:48;100196.40;;;13.97;46.10
52291;BME280;39663;45.432;28.050;2023-03-26T00:20:20;100194.80;;;13.82;45.95
52291;BME280;39663;45.432;28.050;2023-03-26T00:20:52;100193.64;;;13.64;46.15
52291;BME280;39663;45.432;28.050;2023-03-26T00:21:24;100191.96;;;13.51;46.36
52291;BME280;39663;45.432;28.050;2023-03-26T00:21:56;100190.64;;;13.80;46.15
52291;BME280;39663;45.432;28.050;2023-03-26T00:22:27;100188.45;;;13.65;46.38
52291;BME280;39663;45.432;28.050;2023-03-26T00:22:59;100187.90;;;13.41;46.55
52291;BME280;39663;45.432;28.050;2023-03-26T00:23:31;100191.21;;;13.66;46.48
52291;BME280;39663;45.432;28.050;2023-03-26T00:24:06;100189.37;;;13.52;46.65
52291;BME280;39663;45.432;28.050;2023-03-26T00:24:38;100193.24;;;13.66;46.79
52291;BME280;39663;45.432;28.050;2023-03-26T00:25:09;100192.98;;;13.47;46.80
52291;BME280;39663;45.432;28.050;2023-03-26T00:25:40;100193.95;;;13.38;47.03
52291;BME280;39663;45.432;28.050;2023-03-26T00:26:12;100194.60;;;13.60;47.24
52291;BME280;39663;45.432;28.050;2023-03-26T00:26:43;100194.13;;;13.43;47.10
52291;BME280;39663;45.432;28.050;2023-03-26T00:27:15;100193.98;;;13.49;47.19
52291;BME280;39663;45.432;28.050;2023-03-26T00:27:47;100195.38;;;13.60;46.73
52291;BME280;39663;45.432;28.050;2023-03-26T00:28:18;100194.43;;;13.72;46.64
52291;BME280;39663;45.432;28.050;2023-03-26T00:28:50;100195.66;;;13.74;46.75
52291;BME280;39663;45.432;28.050;2023-03-26T00:29:21;100194.84;;;13.84;46.73
52291;BME280;39663;45.432;28.050;2023-03-26T00:29:53;100193.51;;;13.88;46.20
52291;BME280;39663;45.432;28.050;2023-03-26T00:30:24;100193.81;;;13.83;46.15
52291;BME280;39663;45.432;28.050;2023-03-26T00:30:59;100191.36;;;13.96;46.09
52291;BME280;39663;45.432;28.050;2023-03-26T00:31:31;100190.87;;;13.70;46.32
52291;BME280;39663;45.432;28.050;2023-03-26T00:32:03;100188.11;;;13.96;46.38
52291;BME280;39663;45.432;28.050;2023-03-26T00:32:35;100189.14;;;13.82;46.31
52291;BME280;39663;45.432;28.050;2023-03-26T00:33:06;100191.79;;;13.71;46.16
52291;BME280;39663;45.432;28.050;2023-03-26T00:33:39;100191.16;;;14.12;46.20
52291;BME280;39663;45.432;28.050;2023-03-26T00:34:10;100191.75;;;13.88;46.35
52291;BME280;39663;45.432;28.050;2023-03-26T00:34:42;100190.67;;;13.77;46.65
52291;BME280;39663;45.432;28.050;2023-03-26T00:35:13;100188.92;;;13.54;46.69
52291;BME280;39663;45.432;28.050;2023-03-26T00:35:44;100188.46;;;13.82;46.54
52291;BME280;39663;45.432;28.050;2023-03-26T00:36:16;100188.83;;;13.61;46.58
52291;BME280;39663;45.432;28.050;2023-03-26T00:36:47;100191.09;;;13.71;46.59
52291;BME280;39663;45.432;28.050;2023-03-26T00:37:18;100195.40;;;13.61;46.94
52291;BME280;39663;45.432;28.050;2023-03-26T00:37:50;100196.87;;;13.59;47.00
52291;BME280;39663;45.432;28.050;2023-03-26T00:38:22;100199.74;;;13.57;46.96
52291;BME280;39663;45.432;28.050;2023-03-26T00:38:54;100197.89;;;13.51;46.95
52291;BME280;39663;45.432;28.050;2023-03-26T00:39:25;100197.36;;;13.42;46.86
52291;BME280;39663;45.432;28.050;2023-03-26T00:39:57;100197.10;;;13.91;46.73
52291;BME280;39663;45.432;28.050;2023-03-26T00:40:28;100198.12;;;13.82;46.36
52291;BME280;39663;45.432;28.050;2023-03-26T00:41:00;100197.23;;;13.86;46.20
52291;BME280;39663;45.432;28.050;2023-03-26T00:41:31;100198.26;;;13.98;45.98
52291;BME280;39663;45.432;28.050;2023-03-26T00:42:03;100199.15;;;13.96;46.00
52291;BME280;39663;45.432;28.050;2023-03-26T00:42:35;100198.27;;;13.93;46.15
52291;BME280;39663;45.432;28.050;2023-03-26T00:43:06;100199.01;;;13.91;46.03
52291;BME280;39663;45.432;28.050;2023-03-26T00:43:37;100200.23;;;13.97;46.12
52291;BME280;39663;45.432;28.050;2023-03-26T00:44:09;100199.44;;;13.66;46.04
52291;BME280;39663;45.432;28.050;2023-03-26T00:44:41;100200.97;;;13.87;46.10
52291;BME280;39663;45.432;28.050;2023-03-26T00:45:12;100201.62;;;13.89;46.32
52291;BME280;39663;45.432;28.050;2023-03-26T00:45:44;100199.54;;;13.89;46.34
52291;BME280;39663;45.432;28.050;2023-03-26T00:46:16;100200.39;;;13.92;46.42
52291;BME280;39663;45.432;28.050;2023-03-26T00:46:48;100198.23;;;13.72;46.35
52291;BME280;39663;45.432;28.050;2023-03-26T00:47:19;100198.79;;;13.70;46.43
52291;BME280;39663;45.432;28.050;2023-03-26T00:47:51;100198.89;;;13.69;46.46
52291;BME280;39663;45.432;28.050;2023-03-26T00:48:22;100196.02;;;13.59;46.57
52291;BME280;39663;45.432;28.050;2023-03-26T00:48:54;100196.92;;;13.77;46.72
52291;BME280;39663;45.432;28.050;2023-03-26T00:49:25;100196.02;;;13.57;46.77
52291;BME280;39663;45.432;28.050;2023-03-26T00:49:57;100194.71;;;13.75;46.73
52291;BME280;39663;45.432;28.050;2023-03-26T00:50:28;100195.47;;;13.78;46.97
52291;BME280;39663;45.432;28.050;2023-03-26T00:50:59;100196.08;;;13.67;47.17
52291;BME280;39663;45.432;28.050;2023-03-26T00:51:31;100197.51;;;13.65;47.12
52291;BME280;39663;45.432;28.050;2023-03-26T00:52:02;100197.72;;;13.43;47.06
52291;BME280;39663;45.432;28.050;2023-03-26T00:52:34;100196.16;;;13.70;47.37
52291;BME280;39663;45.432;28.050;2023-03-26T00:53:05;100194.13;;;13.29;47.64
52291;BME280;39663;45.432;28.050;2023-03-26T00:53:37;100193.01;;;13.75;47.48
52291;BME280;39663;45.432;28.050;2023-03-26T00:54:08;100189.78;;;13.62;47.29
52291;BME280;39663;45.432;28.050;2023-03-26T00:54:40;100187.78;;;13.70;47.02
52291;BME280;39663;45.432;28.050;2023-03-26T00:55:12;100186.47;;;13.78;47.02
52291;BME280;39663;45.432;28.050;2023-03-26T00:55:45;100187.03;;;13.45;47.03
52291;BME280;39663;45.432;28.050;2023-03-26T00:56:17;100186.88;;;13.58;47.22
52291;BME280;39663;45.432;28.050;2023-03-26T00:56:49;100185.03;;;13.57;47.14
52291;BME280;39663;45.432;28.050;2023-03-26T00:57:21;100184.18;;;13.50;47.34
52291;BME280;39663;45.432;28.050;2023-03-26T00:57:53;100179.73;;;13.42;47.42
52291;BME280;39663;45.432;28.050;2023-03-26T00:58:24;100181.08;;;13.48;47.57
52291;BME280;39663;45.432;28.050;2023-03-26T00:58:56;100181.18;;;13.35;47.38
52291;BME280;39663;45.432;28.050;2023-03-26T00:59:27;100178.25;;;13.17;47.24
52291;BME280;39663;45.432;28.050;2023-03-26T00:59:58;100179.80;;;13.32;47.55
52291;BME280;39663;45.432;28.050;2023-03-26T01:00:31;100181.23;;;12.78;48.22
52291;BME280;39663;45.432;28.050;2023-03-26T01:01:07;100181.70;;;13.07;48.01
52291;BME280;39663;45.432;28.050;2023-03-26T01:01:39;100180.37;;;13.22;47.94
52291;BME280;39663;45.432;28.050;2023-03-26T01:02:13;100182.16;;;13.14;48.06
52291;BME280;39663;45.432;28.050;2023-03-26T01:02:45;100182.43;;;13.21;47.87
52291;BME280;39663;45.432;28.050;2023-03-26T01:03:18;100181.37;;;13.34;47.80
52291;BME280;39663;45.432;28.050;2023-03-26T01:03:50;100181.59;;;13.60;47.47
52291;BME280;39663;45.432;28.050;2023-03-26T01:04:26;100180.85;;;13.38;47.35
52291;BME280;39663;45.432;28.050;2023-03-26T01:04:58;100181.01;;;13.22;47.47
52291;BME280;39663;45.432;28.050;2023-03-26T01:06:04;100181.65;;;13.37;47.91
52291;BME280;39663;45.432;28.050;2023-03-26T01:06:38;100185.40;;;13.48;47.46
52291;BME280;39663;45.432;28.050;2023-03-26T01:07:11;100186.87;;;13.43;47.49
52291;BME280;39663;45.432;28.050;2023-03-26T01:07:43;100187.03;;;13.43;47.80
52291;BME280;39663;45.432;28.050;2023-03-26T01:08:24;100186.51;;;13.35;47.73
52291;BME280;39663;45.432;28.050;2023-03-26T01:08:57;100186.22;;;13.58;47.56
52291;BME280;39663;45.432;28.050;2023-03-26T01:09:34;100186.07;;;13.23;47.46
52291;BME280;39663;45.432;28.050;2023-03-26T01:10:07;100187.74;;;13.35;47.48
52291;BME280;39663;45.432;28.050;2023-03-26T01:10:38;100188.59;;;13.11;47.78
52291;BME280;39663;45.432;28.050;2023-03-26T01:11:12;100186.45;;;13.33;47.65
52291;BME280;39663;45.432;28.050;2023-03-26T01:11:45;100185.65;;;13.23;47.81
52291;BME280;39663;45.432;28.050;2023-03-26T01:12:20;100187.00;;;13.21;48.73
52291;BME280;39663;45.432;28.050;2023-03-26T01:12:51;100187.34;;;13.29;48.65
52291;BME280;39663;45.432;28.050;2023-03-26T01:13:24;100188.04;;;13.00;49.71
52291;BME280;39663;45.432;28.050;2023-03-26T01:13:58;100185.47;;;13.28;49.35
52291;BME280;39663;45.432;28.050;2023-03-26T01:14:30;100185.74;;;13.24;48.81
52291;BME280;39663;45.432;28.050;2023-03-26T01:15:01;100183.11;;;13.29;48.72
52291;BME280;39663;45.432;28.050;2023-03-26T01:15:33;100183.37;;;13.31;48.54
52291;BME280;39663;45.432;28.050;2023-03-26T01:16:08;100184.39;;;13.40;48.55
52291;BME280;39663;45.432;28.050;2023-03-26T01:16:48;100184.26;;;13.23;47.97
52291;BME280;39663;45.432;28.050;2023-03-26T01:17:21;100183.18;;;13.49;48.31
52291;BME280;39663;45.432;28.050;2023-03-26T01:17:53;100184.15;;;13.39;48.03
52291;BME280;39663;45.432;28.050;2023-03-26T01:18:25;100185.88;;;13.65;47.74
52291;BME280;39663;45.432;28.050;2023-03-26T01:18:56;100186.07;;;13.53;47.53
52291;BME280;39663;45.432;28.050;2023-03-26T01:19:34;100182.60;;;13.54;47.42
52291;BME280;39663;45.432;28.050;2023-03-26T01:20:12;100182.28;;;13.68;47.44
52291;BME280;39663;45.432;28.050;2023-03-26T01:20:48;100181.97;;;13.56;47.50
52291;BME280;39663;45.432;28.050;2023-03-26T01:21:22;100183.44;;;13.29;47.79
52291;BME280;39663;45.432;28.050;2023-03-26T01:21:54;100185.86;;;13.10;47.65
52291;BME280;39663;45.432;28.050;2023-03-26T01:22:26;100180.43;;;13.31;47.66
52291;BME280;39663;45.432;28.050;2023-03-26T01:23:01;100181.06;;;13.11;47.93
52291;BME280;39663;45.432;28.050;2023-03-26T01:23:39;100179.81;;;13.23;47.77
52291;BME280;39663;45.432;28.050;2023-03-26T01:24:11;100181.58;;;13.31;48.10
52291;BME280;39663;45.432;28.050;2023-03-26T01:24:43;100180.59;;;13.29;47.87
52291;BME280;39663;45.432;28.050;2023-03-26T01:25:14;100182.03;;;13.09;47.72
52291;BME280;39663;45.432;28.050;2023-03-26T01:25:49;100182.51;;;13.40;47.73
52291;BME280;39663;45.432;28.050;2023-03-26T01:26:35;100186.23;;;13.35;48.59
52291;BME280;39663;45.432;28.050;2023-03-26T01:27:13;100185.25;;;13.11;49.52
52291;BME280;39663;45.432;28.050;2023-03-26T01:27:50;100184.38;;;13.06;48.65
52291;BME280;39663;45.432;28.050;2023-03-26T01:28:24;100186.74;;;12.99;48.37
52291;BME280;39663;45.432;28.050;2023-03-26T01:29:00;100188.41;;;13.15;48.26
52291;BME280;39663;45.432;28.050;2023-03-26T01:29:38;100189.80;;;13.05;48.06
52291;BME280;39663;45.432;28.050;2023-03-26T01:30:17;100189.56;;;13.12;47.87
52291;BME280;39663;45.432;28.050;2023-03-26T01:30:56;100190.85;;;13.14;47.74
52291;BME280;39663;45.432;28.050;2023-03-26T01:31:33;100193.89;;;13.22;47.67
52291;BME280;39663;45.432;28.050;2023-03-26T01:32:17;100194.22;;;13.22;47.67
52291;BME280;39663;45.432;28.050;2023-03-26T01:33:00;100191.26;;;13.13;47.81
52291;BME280;39663;45.432;28.050;2023-03-26T01:33:36;100193.06;;;13.06;47.92
52291;BME280;39663;45.432;28.050;2023-03-26T01:34:13;100191.92;;;13.01;48.01
52291;BME280;39663;45.432;28.050;2023-03-26T01:35:02;100191.62;;;12.99;48.26
52291;BME280;39663;45.432;28.050;2023-03-26T01:35:42;100189.73;;;12.98;48.30
52291;BME280;39663;45.432;28.050;2023-03-26T01:36:19;100186.20;;;12.89;48.47
52291;BME280;39663;45.432;28.050;2023-03-26T01:36:59;100182.46;;;13.22;48.36
52291;BME280;39663;45.432;28.050;2023-03-26T01:37:40;100181.37;;;13.20;48.16
52291;BME280;39663;45.432;28.050;2023-03-26T01:38:22;100180.81;;;13.01;47.97
52291;BME280;39663;45.432;28.050;2023-03-26T01:38:59;100183.88;;;12.88;48.12
52291;BME280;39663;45.432;28.050;2023-03-26T01:39:36;100182.55;;;12.60;48.32
52291;BME280;39663;45.432;28.050;2023-03-26T01:40:19;100180.38;;;12.48;48.46
52291;BME280;39663;45.432;28.050;2023-03-26T01:40:59;100180.57;;;13.01;48.30
52291;BME280;39663;45.432;28.050;2023-03-26T01:41:40;100181.85;;;13.16;48.32
52291;BME280;39663;45.432;28.050;2023-03-26T01:42:16;100180.22;;;12.98;48.40
52291;BME280;39663;45.432;28.050;2023-03-26T01:42:57;100179.71;;;13.19;48.39
52291;BME280;39663;45.432;28.050;2023-03-26T01:43:34;100181.06;;;13.31;48.14
52291;BME280;39663;45.432;28.050;2023-03-26T01:44:12;100177.51;;;13.16;48.05
52291;BME280;39663;45.432;28.050;2023-03-26T01:44:51;100179.06;;;13.01;47.66
52291;BME280;39663;45.432;28.050;2023-03-26T01:45:29;100177.00;;;13.20;47.33
52291;BME280;39663;45.432;28.050;2023-03-26T01:46:05;100177.59;;;13.41;47.29
52291;BME280;39663;45.432;28.050;2023-03-26T01:46:38;100177.50;;;13.43;47.22
52291;BME280;39663;45.432;28.050;2023-03-26T01:47:12;100177.30;;;13.35;47.39
52291;BME280;39663;45.432;28.050;2023-03-26T01:47:45;100177.69;;;13.35;47.20
52291;BME280;39663;45.432;28.050;2023-03-26T01:48:17;100176.33;;;13.41;47.21
52291;BME280;39663;45.432;28.050;2023-03-26T01:48:49;100175.96;;;13.41;47.51
52291;BME280;39663;45.432;28.050;2023-03-26T01:49:21;100176.09;;;13.41;47.73
52291;BME280;39663;45.432;28.050;2023-03-26T01:49:52;100175.25;;;13.46;47.27
52291;BME280;39663;45.432;28.050;2023-03-26T01:50:23;100174.72;;;13.44;47.41
52291;BME280;39663;45.432;28.050;2023-03-26T01:50:55;100170.27;;;13.34;47.42
52291;BME280;39663;45.432;28.050;2023-03-26T01:51:28;100169.49;;;13.52;46.85
52291;BME280;39663;45.432;28.050;2023-03-26T01:51:59;100168.57;;;13.69;46.67
52291;BME280;39663;45.432;28.050;2023-03-26T01:52:31;100169.32;;;13.72;46.83
52291;BME280;39663;45.432;28.050;2023-03-26T01:53:03;100170.11;;;13.78;46.48
52291;BME280;39663;45.432;28.050;2023-03-26T01:53:38;100172.27;;;13.86;46.52
52291;BME280;39663;45.432;28.050;2023-03-26T01:54:15;100172.29;;;13.66;46.35
52291;BME280;39663;45.432;28.050;2023-03-26T01:54:48;100173.45;;;13.88;46.26
52291;BME280;39663;45.432;28.050;2023-03-26T01:55:20;100176.64;;;13.60;46.42
52291;BME280;39663;45.432;28.050;2023-03-26T01:56:00;100176.75;;;13.65;46.38
52291;BME280;39663;45.432;28.050;2023-03-26T01:56:36;100180.90;;;13.60;46.38
52291;BME280;39663;45.432;28.050;2023-03-26T01:57:17;100184.09;;;13.59;46.40
52291;BME280;39663;45.432;28.050;2023-03-26T01:57:57;100185.70;;;13.61;46.44
52291;BME280;39663;45.432;28.050;2023-03-26T01:58:38;100187.43;;;13.78;46.44
52291;BME280;39663;45.432;28.050;2023-03-26T01:59:25;100188.99;;;13.55;46.45
52291;BME280;39663;45.432;28.050;2023-03-26T02:00:08;100189.18;;;13.85;46.51
52291;BME280;39663;45.432;28.050;2023-03-26T02:00:44;100187.29;;;13.64;46.58
52291;BME280;39663;45.432;28.050;2023-03-26T02:01:25;100188.92;;;13.65;46.66
52291;BME280;39663;45.432;28.050;2023-03-26T02:02:00;100190.73;;;13.42;46.63
52291;BME280;39663;45.432;28.050;2023-03-26T02:02:37;100193.77;;;13.46;46.67
52291;BME280;39663;45.432;28.050;2023-03-26T02:03:21;100195.82;;;13.37;46.98
52291;BME280;39663;45.432;28.050;2023-03-26T02:04:00;100196.79;;;13.14;47.46
52291;BME280;39663;45.432;28.050;2023-03-26T02:04:41;100198.73;;;13.18;47.41
52291;BME280;39663;45.432;28.050;2023-03-26T02:05:21;100198.62;;;13.47;47.27
52291;BME280;39663;45.432;28.050;2023-03-26T02:06:02;100200.16;;;13.64;47.13
52291;BME280;39663;45.432;28.050;2023-03-26T02:06:40;100199.01;;;13.59;47.07
52291;BME280;39663;45.432;28.050;2023-03-26T02:07:20;100199.06;;;13.55;47.05
52291;BME280;39663;45.432;28.050;2023-03-26T02:07:58;100197.29;;;13.30;47.09
52291;BME280;39663;45.432;28.050;2023-03-26T02:08:36;100196.68;;;13.21;47.42
52291;BME280;39663;45.432;28.050;2023-03-26T02:09:11;100194.71;;;13.57;47.40
52291;BME280;39663;45.432;28.050;2023-03-26T02:09:47;100193.58;;;13.29;47.58
52291;BME280;39663;45.432;28.050;2023-03-26T02:10:24;100194.17;;;13.46;47.55
52291;BME280;39663;45.432;28.050;2023-03-26T02:10:58;100196.05;;;13.24;47.62
52291;BME280;39663;45.432;28.050;2023-03-26T02:11:32;100194.58;;;13.07;47.97
52291;BME280;39663;45.432;28.050;2023-03-26T02:12:06;100194.79;;;13.12;48.21
52291;BME280;39663;45.432;28.050;2023-03-26T02:12:39;100196.10;;;12.95;48.33
52291;BME280;39663;45.432;28.050;2023-03-26T02:13:11;100198.91;;;12.81;48.98
52291;BME280;39663;45.432;28.050;2023-03-26T02:13:45;100196.68;;;12.56;49.18
52291;BME280;39663;45.432;28.050;2023-03-26T02:14:17;100194.42;;;12.64;48.96
52291;BME280;39663;45.432;28.050;2023-03-26T02:14:48;100193.52;;;12.60;49.03
52291;BME280;39663;45.432;28.050;2023-03-26T02:15:21;100194.79;;;12.72;49.08
52291;BME280;39663;45.432;28.050;2023-03-26T02:15:55;100195.47;;;12.95;49.05
52291;BME280;39663;45.432;28.050;2023-03-26T02:16:27;100198.71;;;13.09;48.93
52291;BME280;39663;45.432;28.050;2023-03-26T02:16:59;100199.37;;;12.97;48.76
52291;BME280;39663;45.432;28.050;2023-03-26T02:17:30;100197.30;;;13.05;48.43
52291;BME280;39663;45.432;28.050;2023-03-26T02:18:02;100194.15;;;13.04;48.34
52291;BME280;39663;45.432;28.050;2023-03-26T02:18:34;100192.23;;;12.99;48.59
52291;BME280;39663;45.432;28.050;2023-03-26T02:19:05;100192.14;;;13.02;48.79
52291;BME280;39663;45.432;28.050;2023-03-26T02:19:37;100189.54;;;13.21;48.41
52291;BME280;39663;45.432;28.050;2023-03-26T02:20:12;100186.36;;;13.36;48.24
52291;BME280;39663;45.432;28.050;2023-03-26T02:20:44;100182.71;;;13.16;48.14
52291;BME280;39663;45.432;28.050;2023-03-26T02:21:17;100183.91;;;13.14;48.10
52291;BME280;39663;45.432;28.050;2023-03-26T02:21:50;100181.89;;;13.02;48.46
52291;BME280;39663;45.432;28.050;2023-03-26T02:22:21;100184.35;;;13.11;48.62
52291;BME280;39663;45.432;28.050;2023-03-26T02:22:53;100188.45;;;13.11;48.47
52291;BME280;39663;45.432;28.050;2023-03-26T02:23:24;100187.81;;;13.47;48.06
52291;BME280;39663;45.432;28.050;2023-03-26T02:23:57;100190.02;;;13.28;48.23
52291;BME280;39663;45.432;28.050;2023-03-26T02:24:28;100188.94;;;13.26;48.13
52291;BME280;39663;45.432;28.050;2023-03-26T02:25:00;100188.81;;;13.47;47.64
52291;BME280;39663;45.432;28.050;2023-03-26T02:25:31;100188.13;;;13.51;47.60
52291;BME280;39663;45.432;28.050;2023-03-26T02:26:06;100189.88;;;13.37;47.92
52291;BME280;39663;45.432;28.050;2023-03-26T02:26:38;100189.70;;;13.24;48.04
52291;BME280;39663;45.432;28.050;2023-03-26T02:27:10;100188.75;;;12.93;48.13
52291;BME280;39663;45.432;28.050;2023-03-26T02:27:42;100186.93;;;13.43;47.99
52291;BME280;39663;45.432;28.050;2023-03-26T02:28:13;100189.50;;;13.01;48.03
52291;BME280;39663;45.432;28.050;2023-03-26T02:28:45;100191.21;;;13.05;48.38
52291;BME280;39663;45.432;28.050;2023-03-26T02:29:16;100192.76;;;13.16;48.54
52291;BME280;39663;45.432;28.050;2023-03-26T02:29:48;100194.49;;;13.21;48.41
52291;BME280;39663;45.432;28.050;2023-03-26T02:30:22;100196.89;;;13.27;48.27
52291;BME280;39663;45.432;28.050;2023-03-26T02:30:54;100200.67;;;13.40;47.81
52291;BME280;39663;45.432;28.050;2023-03-26T02:31:25;100199.68;;;12.88;48.10
52291;BME280;39663;45.432;28.050;2023-03-26T02:31:57;100199.22;;;13.00;48.28
52291;BME280;39663;45.432;28.050;2023-03-26T02:32:28;100198.86;;;13.31;47.86
52291;BME280;39663;45.432;28.050;2023-03-26T02:32:59;100197.74;;;13.35;47.76
52291;BME280;39663;45.432;28.050;2023-03-26T02:33:31;100197.27;;;13.30;47.58
52291;BME280;39663;45.432;28.050;2023-03-26T02:34:02;100197.46;;;13.48;47.48
52291;BME280;39663;45.432;28.050;2023-03-26T02:34:34;100197.36;;;13.39;47.41
52291;BME280;39663;45.432;28.050;2023-03-26T02:35:06;100196.81;;;13.57;47.32
52291;BME280;39663;45.432;28.050;2023-03-26T02:35:37;100195.50;;;13.37;47.58
52291;BME280;39663;45.432;28.050;2023-03-26T02:36:10;100199.07;;;13.77;47.55
52291;BME280;39663;45.432;28.050;2023-03-26T02:36:41;100197.98;;;13.66;47.56
52291;BME280;39663;45.432;28.050;2023-03-26T02:37:12;100197.77;;;13.76;47.35
52291;BME280;39663;45.432;28.050;2023-03-26T02:37:43;100199.15;;;13.66;47.05
52291;BME280;39663;45.432;28.050;2023-03-26T02:38:15;100198.63;;;13.95;46.87
52291;BME280;39663;45.432;28.050;2023-03-26T02:38:46;100197.88;;;13.73;46.78
52291;BME280;39663;45.432;28.050;2023-03-26T02:39:18;100198.18;;;13.71;46.74
52291;BME280;39663;45.432;28.050;2023-03-26T02:39:49;100196.34;;;13.96;46.63
52291;BME280;39663;45.432;28.050;2023-03-26T02:40:21;100199.08;;;13.94;46.60
52291;BME280;39663;45.432;28.050;2023-03-26T02:40:53;100199.19;;;13.72;46.86
52291;BME280;39663;45.432;28.050;2023-03-26T02:41:24;100199.28;;;13.66;46.91
52291;BME280;39663;45.432;28.050;2023-03-26T02:41:56;100198.34;;;13.67;46.95
52291;BME280;39663;45.432;28.050;2023-03-26T02:42:27;100195.76;;;13.84;47.02
52291;BME280;39663;45.432;28.050;2023-03-26T02:42:58;100197.38;;;13.76;46.77
52291;BME280;39663;45.432;28.050;2023-03-26T02:43:30;100197.48;;;14.01;46.50
52291;BME280;39663;45.432;28.050;2023-03-26T02:44:01;100197.98;;;13.82;46.64
52291;BME280;39663;45.432;28.050;2023-03-26T02:44:33;100195.51;;;13.82;46.54
52291;BME280;39663;45.432;28.050;2023-03-26T02:45:05;100197.24;;;13.85;46.77
52291;BME280;39663;45.432;28.050;2023-03-26T02:45:37;100196.46;;;13.86;46.71
52291;BME280;39663;45.432;28.050;2023-03-26T02:46:09;100195.85;;;13.97;46.24
52291;BME280;39663;45.432;28.050;2023-03-26T02:46:40;100195.35;;;14.01;46.10
52291;BME280;39663;45.432;28.050;2023-03-26T02:47:12;100194.98;;;14.03;45.96
52291;BME280;39663;45.432;28.050;2023-03-26T02:47:43;100193.98;;;13.94;45.96
52291;BME280;39663;45.432;28.050;2023-03-26T02:48:15;100194.98;;;13.97;45.99
52291;BME280;39663;45.432;28.050;2023-03-26T02:48:46;100192.76;;;13.96;45.97
52291;BME280;39663;45.432;28.050;2023-03-26T02:49:18;100189.60;;;14.17;46.14
52291;BME280;39663;45.432;28.050;2023-03-26T02:49:49;100191.21;;;14.13;46.07
52291;BME280;39663;45.432;28.050;2023-03-26T02:50:20;100189.01;;;14.13;46.01
52291;BME280;39663;45.432;28.050;2023-03-26T02:50:52;100189.56;;;13.91;46.05
52291;BME280;39663;45.432;28.050;2023-03-26T02:51:23;100189.71;;;13.84;46.48
52291;BME280;39663;45.432;28.050;2023-03-26T02:51:55;100192.00;;;13.71;46.38
52291;BME280;39663;45.432;28.050;2023-03-26T02:52:26;100192.36;;;13.72;46.78
52291;BME280;39663;45.432;28.050;2023-03-26T02:52:58;100191.76;;;13.78;46.54